Terminal Aerodrome Forecast
Issued by NWS

Home | Current Version | Previous Version | Text Only | Print | Product List | Glossary On
Versions: 1 2 3 4 5 6 7 8 9 10 11 12 13 14 15 16 17 18 19 20 21 22 23
000
FTUS46 KPQR 241826 AAA
TAFONP
TAF AMD
KONP 241826Z 2418/2518 32008KT P6SM SCT015
     FM242100 33012G18KT P6SM SCT025
     FM250200 33012G18KT P6SM BKN025
     FM250500 34006KT P6SM OVC015=

USA.gov is the U.S. government's official web portal to all federal, state and local government web resources and services.